Terminal Aerodrome Forecast
Issued by NWS Billings, MT

Home | Current Version | Previous Version | Text Only | Print | Product List | Glossary On
Versions: 1 2 3 4 5 6 7 8 9 10 11 12 13 14 15 16 17 18 19 20 21 22 23 24 25 26 27 28 29 30 31 32 33 34 35 36 37 38 39 40 41 42 43
000
FTUS45 KBYZ 222110 AAC
TAFSHR
TAF AMD
KSHR 222110Z 2221/2318 30005KT 6SM -SHRA SCT015 OVC035
     FM230800 35008KT 5SM -RA SCT008 BKN010 OVC020=

USA.gov is the U.S. government's official web portal to all federal, state and local government web resources and services.